Time;durP1;ratioP1;P1;durP2;ratioP2;P2;SDS_P1;SDS_P2;PMS_P1;PMS_P2;Temp;Humidity;BMP_temperature;BMP_pressure;BME280_temperature;BME280_humidity;BME280_pressure;Samples;Min_cycle;Max_cycle;Signal;HPM_P1;HPM_P2
2022/08/27 00:02:08;;;;;;;;;;;17.20;99.90;;;;;;5069608;28;19919;-76
2022/08/27 00:04:34;;;;;;;;;;;17.20;99.90;;;;;;5074767;28;20043;-77
2022/08/27 00:07:01;;;;;;;;;;;17.30;99.90;;;;;;5071537;28;19913;-77
2022/08/27 00:09:27;;;;;;;;;;;17.20;99.90;;;;;;5071400;28;19908;-77
2022/08/27 00:11:53;;;;;;;;;;;17.20;99.90;;;;;;5071461;28;19919;-77
2022/08/27 00:14:19;;;;;;;;;;;17.20;99.90;;;;;;5071360;28;20328;-77
2022/08/27 00:16:44;;;;;;;;;;;17.20;99.90;;;;;;5067421;28;19908;-80
2022/08/27 00:19:10;;;;;;;;;;;17.20;99.90;;;;;;5071180;28;19909;-77
2022/08/27 00:21:36;;;;;;;;;;;17.20;99.90;;;;;;5069989;28;20337;-77
2022/08/27 00:24:01;;;;;;;;;;;17.20;99.90;;;;;;5071252;28;19908;-77
2022/08/27 00:26:27;;;;;;;;;;;17.10;99.90;;;;;;5071348;28;19916;-80
2022/08/27 00:28:53;;;;;;;;;;;17.10;99.90;;;;;;5071459;28;19954;-77
2022/08/27 00:31:19;;;;;;;;;;;17.00;99.90;;;;;;5069985;28;19912;-77
2022/08/27 00:33:44;;;;;;;;;;;17.10;99.90;;;;;;5078442;28;20641;-77
2022/08/27 00:36:10;;;;;;;;;;;17.10;99.90;;;;;;5072612;28;19963;-77
2022/08/27 00:38:37;;;;;;;;;;;17.10;99.90;;;;;;5071483;28;19908;-77
2022/08/27 00:41:03;;;;;;;;;;;17.10;99.90;;;;;;5071200;28;19955;-77
2022/08/27 00:43:41;;;;;;;;;;;17.00;99.90;;;;;;5070995;28;19916;-77
2022/08/27 00:46:09;;;;;;;;;;;17.00;99.90;;;;;;5070835;28;19908;-78
2022/08/27 00:48:35;;;;;;;;;;;17.00;99.90;;;;;;5071265;28;19909;-81
2022/08/27 00:51:01;;;;;;;;;;;17.00;99.90;;;;;;5071092;28;19915;-77
2022/08/27 00:53:28;;;;;;;;;;;17.00;99.90;;;;;;5070829;28;19912;-77
2022/08/27 00:55:56;;;;;;;;;;;17.00;99.90;;;;;;5071056;28;19909;-77
2022/08/27 00:58:30;;;;;;;;;;;16.90;99.90;;;;;;5070981;28;19909;-77
2022/08/27 01:00:56;;;;;;;;;;;17.00;99.90;;;;;;5066645;28;20276;-79
2022/08/27 01:03:22;;;;;;;;;;;17.10;99.90;;;;;;5072151;28;19920;-79
2022/08/27 01:05:48;;;;;;;;;;;17.10;99.90;;;;;;5070809;28;19908;-77
2022/08/27 01:08:16;;;;;;;;;;;17.10;99.90;;;;;;5070031;28;20465;-77
2022/08/27 01:10:41;;;;;;;;;;;17.10;99.90;;;;;;5070598;28;20007;-77
2022/08/27 01:13:08;;;;;;;;;;;17.10;99.90;;;;;;5070604;28;19995;-77
2022/08/27 01:15:34;;;;;;;;;;;17.10;99.90;;;;;;5070959;28;19999;-78
2022/08/27 01:18:01;;;;;;;;;;;17.10;99.90;;;;;;5070950;28;19958;-80
2022/08/27 01:20:30;;;;;;;;;;;17.10;99.90;;;;;;5070844;28;19909;-77
2022/08/27 01:23:01;;;;;;;;;;;17.00;99.90;;;;;;5070869;28;19913;-77
2022/08/27 01:25:27;;;;;;;;;;;17.00;99.90;;;;;;5070706;28;20339;-77
2022/08/27 01:27:56;;;;;;;;;;;17.00;99.90;;;;;;5070929;28;19909;-77
2022/08/27 01:30:22;;;;;;;;;;;17.10;99.90;;;;;;5067489;28;20316;-77
2022/08/27 01:32:48;;;;;;;;;;;17.10;99.90;;;;;;5070718;28;19909;-77
2022/08/27 01:35:14;;;;;;;;;;;17.10;99.90;;;;;;5070436;28;19909;-77
2022/08/27 01:37:42;;;;;;;;;;;17.10;99.90;;;;;;5070574;28;20282;-77
2022/08/27 01:40:08;;;;;;;;;;;17.10;99.90;;;;;;5072072;28;19915;-77
2022/08/27 01:42:35;;;;;;;;;;;17.00;99.90;;;;;;5068944;28;19912;-77
2022/08/27 01:45:06;;;;;;;;;;;17.00;99.90;;;;;;5070522;28;19915;-80
2022/08/27 01:47:32;;;;;;;;;;;17.00;99.90;;;;;;5071476;28;19916;-77
2022/08/27 01:49:58;;;;;;;;;;;17.00;99.90;;;;;;5072935;28;19950;-77
2022/08/27 01:52:24;;;;;;;;;;;17.00;99.90;;;;;;5074019;28;19962;-77
2022/08/27 01:54:50;;;;;;;;;;;17.00;99.90;;;;;;5074005;28;19931;-77
2022/08/27 01:57:16;;;;;;;;;;;17.00;99.90;;;;;;5073909;28;20382;-77
2022/08/27 01:59:42;;;;;;;;;;;17.00;99.90;;;;;;5074132;28;19944;-77
2022/08/27 02:02:09;;;;;;;;;;;17.00;99.90;;;;;;5070674;28;19956;-77
2022/08/27 02:04:35;;;;;;;;;;;17.00;99.90;;;;;;5073528;28;19919;-77
2022/08/27 02:07:00;;;;;;;;;;;17.00;99.90;;;;;;5074138;28;20373;-77
2022/08/27 02:09:26;;;;;;;;;;;17.00;99.90;;;;;;5073357;28;19908;-77
2022/08/27 02:11:51;;;;;;;;;;;17.00;99.90;;;;;;5073584;28;19958;-78
2022/08/27 02:14:17;;;;;;;;;;;17.00;99.90;;;;;;5073439;28;20388;-77
2022/08/27 02:16:43;;;;;;;;;;;17.00;99.90;;;;;;5071533;28;20230;-77
2022/08/27 02:19:08;;;;;;;;;;;17.00;99.90;;;;;;5073312;28;20335;-77
2022/08/27 02:21:34;;;;;;;;;;;17.00;99.90;;;;;;5073497;28;19909;-77
2022/08/27 02:23:59;;;;;;;;;;;17.00;99.90;;;;;;5073218;28;19981;-79
2022/08/27 02:26:26;;;;;;;;;;;17.00;99.90;;;;;;5073284;28;20006;-76
2022/08/27 02:28:52;;;;;;;;;;;17.00;99.90;;;;;;5072428;28;20396;-80
2022/08/27 02:31:18;;;;;;;;;;;17.00;99.90;;;;;;5073078;28;19908;-78
2022/08/27 02:33:43;;;;;;;;;;;17.00;99.90;;;;;;5073258;28;19916;-76
2022/08/27 02:36:09;;;;;;;;;;;16.90;99.90;;;;;;5073264;28;19920;-76
2022/08/27 02:38:34;;;;;;;;;;;17.00;99.90;;;;;;5073258;28;20377;-77
2022/08/27 02:41:00;;;;;;;;;;;17.00;99.90;;;;;;5072898;28;19913;-80
2022/08/27 02:43:25;;;;;;;;;;;17.00;99.90;;;;;;5071939;28;19916;-76
2022/08/27 02:45:51;;;;;;;;;;;17.00;99.90;;;;;;5083626;28;19909;-77
2022/08/27 02:48:16;;;;;;;;;;;17.00;99.90;;;;;;5072735;28;19908;-76
2022/08/27 02:50:44;;;;;;;;;;;17.00;99.90;;;;;;5071667;28;19944;-79
2022/08/27 02:53:09;;;;;;;;;;;17.00;99.90;;;;;;5072696;28;19920;-76
2022/08/27 02:55:35;;;;;;;;;;;16.90;99.90;;;;;;5071637;28;20277;-77
2022/08/27 02:58:00;;;;;;;;;;;16.80;99.90;;;;;;5072678;28;19914;-77
2022/08/27 03:00:27;;;;;;;;;;;16.80;99.90;;;;;;5072683;28;19930;-76
2022/08/27 03:02:53;;;;;;;;;;;16.80;99.90;;;;;;5068548;28;19912;-77
2022/08/27 03:05:19;;;;;;;;;;;16.80;99.90;;;;;;5072634;28;20393;-77
2022/08/27 03:07:45;;;;;;;;;;;16.80;99.90;;;;;;5072800;28;19908;-77
2022/08/27 03:10:12;;;;;;;;;;;16.80;99.90;;;;;;5072412;28;20070;-77
2022/08/27 03:12:38;;;;;;;;;;;16.70;99.90;;;;;;5072684;28;19909;-77
2022/08/27 03:15:05;;;;;;;;;;;16.70;99.90;;;;;;5071557;28;19920;-77
2022/08/27 03:20:14;;;;;;;;;;;16.80;99.90;;;;;;5067000;28;19915;-77
2022/08/27 03:22:41;;;;;;;;;;;16.80;99.90;;;;;;5070651;28;20464;-76
2022/08/27 03:25:07;;;;;;;;;;;16.80;99.90;;;;;;5072249;28;19912;-77
2022/08/27 03:27:32;;;;;;;;;;;16.80;99.90;;;;;;5072416;28;20293;-77
2022/08/27 03:30:00;;;;;;;;;;;16.80;99.90;;;;;;5070941;28;19908;-77
2022/08/27 03:32:26;;;;;;;;;;;16.80;99.90;;;;;;5064029;28;19914;-79
2022/08/27 03:34:51;;;;;;;;;;;16.90;99.90;;;;;;5077655;28;19908;-77
2022/08/27 03:37:17;;;;;;;;;;;16.90;99.90;;;;;;5069122;28;20368;-79
2022/08/27 03:39:42;;;;;;;;;;;16.80;99.90;;;;;;5071977;28;20368;-77
2022/08/27 03:42:09;;;;;;;;;;;16.90;99.90;;;;;;5071814;28;19962;-77
2022/08/27 03:44:34;;;;;;;;;;;16.90;99.90;;;;;;5071818;28;19909;-77
2022/08/27 03:47:00;;;;;;;;;;;16.90;99.90;;;;;;5071831;28;19954;-77
2022/08/27 03:49:25;;;;;;;;;;;16.90;99.90;;;;;;5071957;28;19962;-79
2022/08/27 03:51:51;;;;;;;;;;;16.90;99.90;;;;;;5071693;28;19947;-77
2022/08/27 03:54:17;;;;;;;;;;;16.90;99.90;;;;;;5070793;28;20274;-77
2022/08/27 03:56:43;;;;;;;;;;;16.90;99.90;;;;;;5071869;28;19908;-77
2022/08/27 03:59:09;;;;;;;;;;;16.80;99.90;;;;;;5070430;28;20002;-77
2022/08/27 04:01:34;;;;;;;;;;;16.80;99.90;;;;;;5070362;28;20395;-77
2022/08/27 04:04:00;;;;;;;;;;;16.80;99.90;;;;;;5072049;28;20058;-79
2022/08/27 04:06:27;;;;;;;;;;;16.90;99.90;;;;;;5070124;28;19912;-77
2022/08/27 04:08:52;;;;;;;;;;;16.90;99.90;;;;;;5068439;28;19909;-78
2022/08/27 04:11:18;;;;;;;;;;;16.80;99.90;;;;;;5067477;28;19916;-77
2022/08/27 04:13:43;;;;;;;;;;;16.80;99.90;;;;;;5071606;28;19915;-77
2022/08/27 04:16:09;;;;;;;;;;;16.80;99.90;;;;;;5071795;28;19917;-77
2022/08/27 04:18:34;;;;;;;;;;;16.80;99.90;;;;;;5071752;28;19952;-78
2022/08/27 04:21:05;;;;;;;;;;;16.80;99.90;;;;;;5071912;28;19908;-78
2022/08/27 04:23:31;;;;;;;;;;;16.80;99.90;;;;;;5071376;28;20388;-77
2022/08/27 04:25:56;;;;;;;;;;;16.80;99.90;;;;;;5071805;28;19952;-77
2022/08/27 04:28:22;;;;;;;;;;;16.80;99.90;;;;;;5071844;28;19912;-77
2022/08/27 04:30:48;;;;;;;;;;;16.80;99.90;;;;;;5071633;28;20483;-77
2022/08/27 04:33:13;;;;;;;;;;;16.80;99.90;;;;;;5070939;28;19912;-77
2022/08/27 04:35:39;;;;;;;;;;;16.80;99.90;;;;;;5071142;28;19916;-77
2022/08/27 04:38:05;;;;;;;;;;;16.80;99.90;;;;;;5071340;28;19962;-80
2022/08/27 04:43:15;;;;;;;;;;;16.90;99.90;;;;;;5071007;28;19974;-80
2022/08/27 04:45:44;;;;;;;;;;;16.90;99.90;;;;;;5071290;28;19950;-79
2022/08/27 04:48:11;;;;;;;;;;;16.90;99.90;;;;;;5071475;28;19962;-77
2022/08/27 04:50:44;;;;;;;;;;;16.90;99.90;;;;;;5071217;28;19940;-77
2022/08/27 04:53:10;;;;;;;;;;;16.80;99.90;;;;;;5071069;28;19912;-77
2022/08/27 04:55:40;;;;;;;;;;;16.80;99.90;;;;;;5071424;28;19908;-77
2022/08/27 04:58:05;;;;;;;;;;;16.80;99.90;;;;;;5071013;28;19916;-79
2022/08/27 05:00:32;;;;;;;;;;;16.90;99.90;;;;;;5069867;28;19909;-77
2022/08/27 05:02:57;;;;;;;;;;;16.80;99.90;;;;;;5070380;28;20003;-79
2022/08/27 05:05:25;;;;;;;;;;;16.80;99.90;;;;;;5070677;28;19996;-77
2022/08/27 05:07:51;;;;;;;;;;;16.80;99.90;;;;;;5071015;28;19916;-77
2022/08/27 05:10:16;;;;;;;;;;;16.80;99.90;;;;;;5071023;28;19916;-77
2022/08/27 05:12:42;;;;;;;;;;;16.80;99.90;;;;;;5070868;28;19955;-78
2022/08/27 05:15:07;;;;;;;;;;;16.90;99.90;;;;;;5070693;28;20031;-76
2022/08/27 05:17:33;;;;;;;;;;;16.90;99.90;;;;;;5071018;28;20069;-77
2022/08/27 05:19:58;;;;;;;;;;;16.90;99.90;;;;;;5071013;28;19919;-77
2022/08/27 05:22:24;;;;;;;;;;;16.90;99.90;;;;;;5071696;28;20373;-80
2022/08/27 05:24:49;;;;;;;;;;;16.90;99.90;;;;;;5073194;28;19912;-77
2022/08/27 05:27:15;;;;;;;;;;;17.00;99.90;;;;;;5074684;28;20362;-77
2022/08/27 05:29:40;;;;;;;;;;;17.00;99.90;;;;;;5074446;28;19939;-78
2022/08/27 05:32:05;;;;;;;;;;;17.00;99.90;;;;;;5069968;28;19909;-77
2022/08/27 05:34:31;;;;;;;;;;;17.10;99.90;;;;;;5078587;28;19934;-77
2022/08/27 05:36:56;;;;;;;;;;;17.10;99.90;;;;;;5074455;28;19996;-78
2022/08/27 05:39:22;;;;;;;;;;;17.20;99.90;;;;;;5074300;28;20011;-79
2022/08/27 05:41:47;;;;;;;;;;;17.20;99.90;;;;;;5073498;28;19942;-77
2022/08/27 05:44:14;;;;;;;;;;;17.30;99.90;;;;;;5067987;28;20316;-78
2022/08/27 05:46:40;;;;;;;;;;;17.40;99.90;;;;;;5075083;28;19954;-77
2022/08/27 05:49:05;;;;;;;;;;;17.40;99.90;;;;;;5074600;28;19912;-77
2022/08/27 05:51:33;;;;;;;;;;;17.40;99.90;;;;;;5074919;28;20009;-77
2022/08/27 05:54:03;;;;;;;;;;;17.50;99.90;;;;;;5074210;28;19912;-77
2022/08/27 05:56:31;;;;;;;;;;;17.60;99.90;;;;;;5069162;28;19912;-78
2022/08/27 06:01:43;;;;;;;;;;;17.80;99.90;;;;;;5069638;28;19916;-78
2022/08/27 06:04:10;;;;;;;;;;;17.90;99.90;;;;;;5075975;28;19923;-77
2022/08/27 06:06:37;;;;;;;;;;;18.00;99.90;;;;;;5066001;28;19912;-77
2022/08/27 06:09:03;;;;;;;;;;;18.10;99.90;;;;;;5075199;28;20266;-77
2022/08/27 06:11:29;;;;;;;;;;;18.10;99.90;;;;;;5076238;28;19917;-77
2022/08/27 06:13:55;;;;;;;;;;;18.10;99.90;;;;;;5062446;28;19908;-77
2022/08/27 06:16:20;;;;;;;;;;;18.10;99.90;;;;;;5066219;28;19913;-77
2022/08/27 06:18:47;;;;;;;;;;;18.10;99.90;;;;;;5065369;28;19964;-77
2022/08/27 06:21:13;;;;;;;;;;;18.00;99.90;;;;;;5060214;28;20362;-77
2022/08/27 06:23:38;;;;;;;;;;;18.20;99.90;;;;;;5079049;28;19920;-77
2022/08/27 06:26:08;;;;;;;;;;;18.20;99.90;;;;;;5085622;28;19908;-77
2022/08/27 06:28:34;;;;;;;;;;;18.20;99.90;;;;;;5080862;28;19920;-77
2022/08/27 06:31:02;;;;;;;;;;;18.20;99.90;;;;;;5078650;28;19908;-77
2022/08/27 06:33:29;;;;;;;;;;;18.20;99.90;;;;;;5070950;28;20011;-77
2022/08/27 06:35:57;;;;;;;;;;;18.30;99.90;;;;;;5080688;28;19995;-77
2022/08/27 06:38:22;;;;;;;;;;;18.00;99.90;;;;;;5071559;28;19935;-77
2022/08/27 06:40:48;;;;;;;;;;;18.10;99.90;;;;;;5078750;28;19912;-77
2022/08/27 06:43:13;;;;;;;;;;;18.20;99.90;;;;;;5074776;28;19958;-77
2022/08/27 06:45:39;;;;;;;;;;;18.10;99.90;;;;;;5073135;28;19920;-77
2022/08/27 06:48:04;;;;;;;;;;;18.10;99.90;;;;;;5073780;28;19999;-77
2022/08/27 06:50:35;;;;;;;;;;;18.10;99.90;;;;;;5073601;28;19908;-77
2022/08/27 06:53:00;;;;;;;;;;;18.20;99.90;;;;;;5073366;28;20071;-76
2022/08/27 06:55:26;;;;;;;;;;;18.20;99.90;;;;;;5073048;28;19966;-77
2022/08/27 06:57:51;;;;;;;;;;;18.10;99.90;;;;;;5071740;28;19908;-77
2022/08/27 07:00:17;;;;;;;;;;;18.20;99.90;;;;;;5072014;28;19915;-77
2022/08/27 07:02:42;;;;;;;;;;;18.30;99.90;;;;;;5074146;28;19966;-78
2022/08/27 07:05:08;;;;;;;;;;;18.40;99.90;;;;;;5076001;28;19908;-75
2022/08/27 07:07:33;;;;;;;;;;;18.50;99.90;;;;;;5073150;28;20385;-77
2022/08/27 07:09:59;;;;;;;;;;;18.30;99.90;;;;;;5073199;28;20007;-76
2022/08/27 07:12:25;;;;;;;;;;;18.20;99.90;;;;;;5073327;28;19908;-76
2022/08/27 07:14:50;;;;;;;;;;;18.30;99.90;;;;;;5070960;28;19913;-75
2022/08/27 07:17:16;;;;;;;;;;;18.50;99.90;;;;;;5072923;28;19909;-76
2022/08/27 07:19:41;;;;;;;;;;;18.50;99.90;;;;;;5072825;28;19908;-76
2022/08/27 07:22:07;;;;;;;;;;;18.50;99.90;;;;;;5065582;28;19992;-75
2022/08/27 07:24:32;;;;;;;;;;;18.40;99.90;;;;;;5073823;28;20002;-76
2022/08/27 07:26:58;;;;;;;;;;;18.60;99.90;;;;;;5074087;28;19935;-76
2022/08/27 07:29:23;;;;;;;;;;;18.90;99.90;;;;;;5074355;28;19908;-76
2022/08/27 07:31:49;;;;;;;;;;;19.00;99.90;;;;;;5073364;28;20388;-76
2022/08/27 07:34:14;;;;;;;;;;;19.00;99.90;;;;;;5071548;28;20370;-76
2022/08/27 07:36:40;;;;;;;;;;;19.10;99.90;;;;;;5072101;28;19919;-75
2022/08/27 07:39:06;;;;;;;;;;;19.50;99.90;;;;;;5077271;28;19986;-76
2022/08/27 07:44:23;;;;;;;;;;;19.60;99.90;;;;;;5073369;28;19909;-76
2022/08/27 07:44:24;;;;;;;;;;;19.60;99.90;;;;;;5072663;28;20003;-76
2022/08/27 07:46:49;;;;;;;;;;;19.60;99.90;;;;;;5073031;28;20050;-76
2022/08/27 07:49:16;;;;;;;;;;;19.70;99.90;;;;;;5072769;28;19966;-76
2022/08/27 07:51:41;;;;;;;;;;;19.80;99.90;;;;;;5072999;28;19922;-76
2022/08/27 07:54:07;;;;;;;;;;;19.40;99.90;;;;;;5072343;28;20293;-76
2022/08/27 07:56:32;;;;;;;;;;;19.20;99.90;;;;;;5074703;28;19954;-77
2022/08/27 07:58:58;;;;;;;;;;;18.90;99.90;;;;;;5071970;28;19944;-76
2022/08/27 08:01:23;;;;;;;;;;;19.00;99.90;;;;;;5072410;28;19909;-75
2022/08/27 08:03:49;;;;;;;;;;;18.80;99.90;;;;;;5072180;28;19922;-77
2022/08/27 08:06:15;;;;;;;;;;;18.70;99.90;;;;;;5071626;28;20285;-76
2022/08/27 08:08:41;;;;;;;;;;;18.70;99.90;;;;;;5062849;28;19912;-77
2022/08/27 08:11:10;;;;;;;;;;;18.80;99.90;;;;;;5072201;28;19924;-76
2022/08/27 08:13:36;;;;;;;;;;;18.80;99.90;;;;;;5071796;28;19936;-76
2022/08/27 08:16:05;;;;;;;;;;;18.70;99.90;;;;;;5071565;28;20218;-76
2022/08/27 08:18:30;;;;;;;;;;;18.70;99.90;;;;;;5072178;28;20435;-77
2022/08/27 08:21:05;;;;;;;;;;;18.70;99.90;;;;;;5071822;28;19913;-76
2022/08/27 08:23:32;;;;;;;;;;;18.80;99.90;;;;;;5071666;28;20016;-77
2022/08/27 08:25:58;;;;;;;;;;;18.90;99.90;;;;;;5072359;28;19915;-77
2022/08/27 08:28:24;;;;;;;;;;;18.90;99.90;;;;;;5072273;28;19930;-77
2022/08/27 08:30:50;;;;;;;;;;;19.00;99.90;;;;;;5071810;28;19912;-77
2022/08/27 08:33:16;;;;;;;;;;;19.00;99.90;;;;;;5066283;28;19908;-77
2022/08/27 08:35:41;;;;;;;;;;;18.90;99.90;;;;;;5070572;28;20328;-77
2022/08/27 08:38:07;;;;;;;;;;;18.80;99.90;;;;;;5075196;28;19908;-76
2022/08/27 08:40:35;;;;;;;;;;;18.80;99.90;;;;;;5072056;28;19916;-77
2022/08/27 08:43:02;;;;;;;;;;;19.00;99.90;;;;;;5064300;28;20054;-76
2022/08/27 08:45:30;;;;;;;;;;;19.10;99.90;;;;;;5079141;28;19915;-76
2022/08/27 08:48:02;;;;;;;;;;;19.40;99.90;;;;;;5071983;28;19919;-77
2022/08/27 08:50:33;;;;;;;;;;;19.50;99.90;;;;;;5071244;28;20404;-77
2022/08/27 08:53:08;;;;;;;;;;;19.70;99.90;;;;;;5071875;28;19909;-76
2022/08/27 08:55:38;;;;;;;;;;;19.70;99.90;;;;;;5072549;28;19915;-77
2022/08/27 08:58:22;;;;;;;;;;;20.10;99.90;;;;;;5075888;28;20011;-77
2022/08/27 09:00:52;;;;;;;;;;;19.80;99.90;;;;;;5055723;28;19948;-77
2022/08/27 09:03:18;;;;;;;;;;;19.90;99.90;;;;;;5075744;28;19923;-77
2022/08/27 09:05:47;;;;;;;;;;;20.20;99.90;;;;;;5076684;28;19909;-77
2022/08/27 09:08:23;;;;;;;;;;;20.10;99.90;;;;;;5075731;28;19966;-76
2022/08/27 09:10:49;;;;;;;;;;;20.00;99.90;;;;;;5074770;28;19916;-77
2022/08/27 09:13:20;;;;;;;;;;;19.90;99.90;;;;;;5075565;28;19932;-76
2022/08/27 09:15:46;;;;;;;;;;;20.00;99.90;;;;;;5075425;28;19931;-76
2022/08/27 09:18:12;;;;;;;;;;;20.00;99.90;;;;;;5075709;28;20401;-77
2022/08/27 09:20:39;;;;;;;;;;;19.90;99.90;;;;;;5075288;28;19977;-77
2022/08/27 09:23:07;;;;;;;;;;;19.80;99.90;;;;;;5074818;28;20003;-76
2022/08/27 09:25:38;;;;;;;;;;;19.70;99.90;;;;;;5074067;28;20301;-76
2022/08/27 09:29:14;;;;;;;;;;;19.60;99.90;;;;;;5074833;28;19908;-76
2022/08/27 09:30:58;;;;;;;;;;;19.60;99.90;;;;;;5074693;28;19915;-76
2022/08/27 09:33:24;;;;;;;;;;;19.60;99.90;;;;;;5075110;28;19913;-77
2022/08/27 09:35:51;;;;;;;;;;;19.70;99.90;;;;;;5073007;28;19915;-76
2022/08/27 09:38:27;;;;;;;;;;;19.60;99.90;;;;;;5075890;28;20231;-77
2022/08/27 09:40:54;;;;;;;;;;;19.70;99.90;;;;;;5068664;28;19912;-77
2022/08/27 09:43:22;;;;;;;;;;;19.60;99.90;;;;;;5075570;28;20408;-75
2022/08/27 09:45:59;;;;;;;;;;;19.50;99.90;;;;;;5074498;28;19908;-77
2022/08/27 09:48:27;;;;;;;;;;;19.40;99.90;;;;;;5064857;28;19958;-78
2022/08/27 09:50:57;;;;;;;;;;;19.70;99.90;;;;;;5073802;28;19909;-77
2022/08/27 09:53:25;;;;;;;;;;;19.70;99.90;;;;;;5071299;28;19913;-77
2022/08/27 09:55:58;;;;;;;;;;;19.70;99.90;;;;;;5077981;28;20277;-77
2022/08/27 09:58:28;;;;;;;;;;;19.70;99.90;;;;;;5074512;28;19912;-77
2022/08/27 10:01:02;;;;;;;;;;;19.90;99.90;;;;;;5074748;28;20381;-77
2022/08/27 10:03:27;;;;;;;;;;;20.00;99.90;;;;;;5074748;28;19919;-77
2022/08/27 10:05:53;;;;;;;;;;;20.00;99.90;;;;;;5074841;28;19912;-77
2022/08/27 10:08:22;;;;;;;;;;;20.00;99.90;;;;;;5073198;28;19913;-77
2022/08/27 10:11:02;;;;;;;;;;;20.20;99.90;;;;;;5073986;28;19970;-77
2022/08/27 10:13:33;;;;;;;;;;;20.30;99.90;;;;;;5074097;28;19987;-77
2022/08/27 10:16:16;;;;;;;;;;;20.20;99.90;;;;;;5074464;28;19908;-77
2022/08/27 10:18:48;;;;;;;;;;;20.30;99.90;;;;;;5069803;28;20298;-77
2022/08/27 10:21:19;;;;;;;;;;;20.20;99.90;;;;;;5073231;28;20388;-77
2022/08/27 10:24:05;;;;;;;;;;;20.20;99.90;;;;;;5074118;28;19982;-77
2022/08/27 10:26:46;;;;;;;;;;;19.60;99.90;;;;;;5059464;28;19913;-77
2022/08/27 10:29:31;;;;;;;;;;;19.60;99.90;;;;;;5067792;28;20002;-77
2022/08/27 10:32:15;;;;;;;;;;;19.70;99.90;;;;;;5063534;28;20015;-77
2022/08/27 10:34:49;;;;;;;;;;;19.30;99.90;;;;;;5073866;28;20285;-77
2022/08/27 10:37:15;;;;;;;;;;;19.40;99.90;;;;;;5073395;28;19962;-77
2022/08/27 10:39:46;;;;;;;;;;;19.40;99.90;;;;;;5075015;28;20365;-77
2022/08/27 10:42:31;;;;;;;;;;;19.40;99.90;;;;;;5074962;28;19962;-77
2022/08/27 10:44:56;;;;;;;;;;;19.20;99.90;;;;;;5074423;28;19962;-77
2022/08/27 10:47:26;;;;;;;;;;;19.10;99.90;;;;;;5072480;28;20262;-76
2022/08/27 10:50:00;;;;;;;;;;;19.10;99.90;;;;;;5074080;28;19909;-76
2022/08/27 10:52:41;;;;;;;;;;;19.10;99.90;;;;;;5073667;28;19912;-77
2022/08/27 10:55:11;;;;;;;;;;;19.00;99.90;;;;;;5073179;28;20003;-76
2022/08/27 10:57:42;;;;;;;;;;;19.10;99.90;;;;;;5075879;28;19995;-77
2022/08/27 11:00:14;;;;;;;;;;;19.10;99.90;;;;;;5074225;28;19935;-77
2022/08/27 11:02:41;;;;;;;;;;;19.10;99.90;;;;;;5073585;28;20277;-77
2022/08/27 11:05:16;;;;;;;;;;;19.30;99.90;;;;;;5075653;28;20045;-77
2022/08/27 11:07:47;;;;;;;;;;;19.30;99.90;;;;;;5072751;28;19915;-76
2022/08/27 11:10:19;;;;;;;;;;;19.10;99.90;;;;;;5071854;28;19916;-77
2022/08/27 11:12:46;;;;;;;;;;;19.00;99.90;;;;;;5073273;28;19913;-77
2022/08/27 11:15:16;;;;;;;;;;;18.90;99.90;;;;;;5071833;28;20003;-77
2022/08/27 11:17:44;;;;;;;;;;;19.00;99.90;;;;;;5068614;28;20386;-77
2022/08/27 11:20:15;;;;;;;;;;;19.00;99.90;;;;;;5072489;28;19912;-77
2022/08/27 11:22:44;;;;;;;;;;;19.00;99.90;;;;;;5074086;28;19916;-77
2022/08/27 11:25:28;;;;;;;;;;;19.10;99.90;;;;;;5073315;28;19912;-77
2022/08/27 11:27:55;;;;;;;;;;;19.10;99.90;;;;;;5072431;28;20342;-76
2022/08/27 11:30:30;;;;;;;;;;;19.00;99.90;;;;;;5072938;28;19916;-76
2022/08/27 11:32:56;;;;;;;;;;;19.20;99.90;;;;;;5071206;28;20369;-76
2022/08/27 11:35:39;;;;;;;;;;;19.30;99.90;;;;;;5074858;28;19999;-77
2022/08/27 11:38:04;;;;;;;;;;;19.20;99.90;;;;;;5068272;28;19909;-77
2022/08/27 11:40:30;;;;;;;;;;;19.10;99.90;;;;;;5073992;28;19955;-77
2022/08/27 11:42:59;;;;;;;;;;;19.10;99.90;;;;;;5076854;28;19913;-77
2022/08/27 11:45:33;;;;;;;;;;;19.30;99.90;;;;;;5076564;28;20007;-76
2022/08/27 11:48:14;;;;;;;;;;;19.30;99.90;;;;;;5077283;28;20141;-79
2022/08/27 11:50:39;;;;;;;;;;;19.50;99.90;;;;;;5073327;28;20003;-76
2022/08/27 11:53:06;;;;;;;;;;;19.50;99.90;;;;;;5071842;28;19948;-76
2022/08/27 11:55:35;;;;;;;;;;;19.50;99.90;;;;;;5072508;28;19909;-77
2022/08/27 11:58:08;;;;;;;;;;;19.50;99.90;;;;;;5073151;28;19909;-77
2022/08/27 12:00:38;;;;;;;;;;;19.60;99.90;;;;;;5074449;28;19962;-77
2022/08/27 12:03:07;;;;;;;;;;;19.60;99.90;;;;;;5072312;28;19966;-76
2022/08/27 12:05:44;;;;;;;;;;;19.40;99.90;;;;;;5073139;28;20246;-76
2022/08/27 12:08:15;;;;;;;;;;;19.50;99.90;;;;;;5073241;28;19912;-76
2022/08/27 12:10:41;;;;;;;;;;;19.60;99.90;;;;;;5065555;28;20427;-76
2022/08/27 12:13:14;;;;;;;;;;;19.70;99.90;;;;;;5072146;28;19912;-76
2022/08/27 12:15:43;;;;;;;;;;;19.70;99.90;;;;;;5066424;28;19956;-76
2022/08/27 12:18:27;;;;;;;;;;;19.90;99.90;;;;;;5072046;28;19920;-76
2022/08/27 12:21:15;;;;;;;;;;;20.10;99.90;;;;;;5071663;28;19912;-76
2022/08/27 12:23:59;;;;;;;;;;;20.20;99.90;;;;;;5071153;28;19920;-76
2022/08/27 12:26:25;;;;;;;;;;;20.10;99.90;;;;;;5071707;28;19948;-76
2022/08/27 12:28:54;;;;;;;;;;;20.10;99.90;;;;;;5072042;28;20377;-76
2022/08/27 12:31:21;;;;;;;;;;;20.30;99.90;;;;;;5071059;28;19917;-76
2022/08/27 12:33:49;;;;;;;;;;;20.20;99.90;;;;;;5073562;28;19915;-76
2022/08/27 12:36:19;;;;;;;;;;;20.10;99.90;;;;;;5071801;28;19908;-76
2022/08/27 12:38:48;;;;;;;;;;;20.20;99.90;;;;;;5071758;28;19908;-75
2022/08/27 12:41:46;;;;;;;;;;;20.30;99.90;;;;;;5071854;28;20476;-76
2022/08/27 12:44:14;;;;;;;;;;;20.30;99.90;;;;;;5037634;28;19913;-75
2022/08/27 12:46:48;;;;;;;;;;;20.40;99.90;;;;;;5071755;28;20266;-76
2022/08/27 12:49:18;;;;;;;;;;;20.30;99.90;;;;;;5050941;28;19962;-76
2022/08/27 12:51:44;;;;;;;;;;;20.20;99.90;;;;;;5071923;28;20289;-76
2022/08/27 12:54:39;;;;;;;;;;;20.30;99.90;;;;;;5071133;28;19912;-76
2022/08/27 12:57:31;;;;;;;;;;;20.20;99.90;;;;;;5058251;28;19995;-75
2022/08/27 13:00:13;;;;;;;;;;;20.30;99.90;;;;;;5047890;28;19909;-76
2022/08/27 13:02:51;;;;;;;;;;;20.10;99.90;;;;;;5070045;28;20319;-76
2022/08/27 13:05:18;;;;;;;;;;;20.10;99.90;;;;;;5071356;28;19909;-77
2022/08/27 13:07:45;;;;;;;;;;;20.40;99.90;;;;;;5073253;28;19954;-77
2022/08/27 13:10:18;;;;;;;;;;;20.60;99.90;;;;;;5071339;28;19923;-76
2022/08/27 13:12:44;;;;;;;;;;;20.50;99.90;;;;;;5071490;28;19915;-77
2022/08/27 13:15:11;;;;;;;;;;;20.50;99.90;;;;;;5069947;28;19913;-76
2022/08/27 13:17:40;;;;;;;;;;;20.70;99.90;;;;;;5067089;28;19908;-76
2022/08/27 13:20:26;;;;;;;;;;;20.80;99.90;;;;;;5071184;28;19909;-76
2022/08/27 13:22:52;;;;;;;;;;;20.70;99.90;;;;;;5065132;28;19919;-76
2022/08/27 13:25:23;;;;;;;;;;;20.50;99.90;;;;;;5071193;28;19908;-76
2022/08/27 13:27:53;;;;;;;;;;;20.70;99.90;;;;;;5071366;28;19912;-75
2022/08/27 13:30:19;;;;;;;;;;;20.70;99.90;;;;;;5071065;28;19908;-76
2022/08/27 13:32:44;;;;;;;;;;;20.50;99.90;;;;;;5071256;28;20414;-75
2022/08/27 13:35:10;;;;;;;;;;;20.50;99.90;;;;;;5071597;28;19909;-76
2022/08/27 13:37:48;;;;;;;;;;;20.50;99.90;;;;;;5071289;28;19909;-76
2022/08/27 13:40:27;;;;;;;;;;;20.50;99.90;;;;;;5071225;28;20308;-77
2022/08/27 13:42:53;;;;;;;;;;;20.60;99.90;;;;;;5069288;28;20365;-76
2022/08/27 13:45:19;;;;;;;;;;;20.40;99.90;;;;;;5073191;28;19908;-76
2022/08/27 13:47:46;;;;;;;;;;;20.40;99.90;;;;;;5075389;28;20353;-75
2022/08/27 13:50:21;;;;;;;;;;;20.50;99.90;;;;;;5076319;28;19999;-76
2022/08/27 13:55:31;;;;;;;;;;;20.50;99.90;;;;;;5075673;28;20433;-76
2022/08/27 13:57:57;;;;;;;;;;;20.50;99.90;;;;;;5074012;28;20007;-77
2022/08/27 14:00:23;;;;;;;;;;;20.30;99.90;;;;;;5074552;28;19912;-77
2022/08/27 14:02:49;;;;;;;;;;;20.40;99.90;;;;;;5072669;28;19913;-76
2022/08/27 14:05:26;;;;;;;;;;;20.60;99.90;;;;;;5075126;28;19916;-77
2022/08/27 14:07:57;;;;;;;;;;;20.80;99.90;;;;;;5068565;28;20362;-77
2022/08/27 14:10:25;;;;;;;;;;;20.60;99.90;;;;;;5074182;28;20374;-77
2022/08/27 14:13:12;;;;;;;;;;;20.90;99.90;;;;;;5073781;28;19909;-76
2022/08/27 14:15:43;;;;;;;;;;;20.90;99.90;;;;;;5072645;28;20318;-76
2022/08/27 14:18:27;;;;;;;;;;;21.10;99.90;;;;;;5068122;28;19912;-77
2022/08/27 14:20:53;;;;;;;;;;;21.10;99.90;;;;;;5073390;28;19936;-76
2022/08/27 14:23:19;;;;;;;;;;;20.90;99.90;;;;;;5062259;28;19925;-76
2022/08/27 14:25:45;;;;;;;;;;;20.80;99.90;;;;;;5072660;28;19919;-76
2022/08/27 14:28:11;;;;;;;;;;;20.80;99.90;;;;;;5064973;28;20285;-77
2022/08/27 14:30:36;;;;;;;;;;;21.00;99.90;;;;;;5072570;28;20259;-76
2022/08/27 14:33:02;;;;;;;;;;;21.00;99.90;;;;;;5070839;28;19965;-76
2022/08/27 14:35:28;;;;;;;;;;;21.10;99.90;;;;;;5071390;28;19915;-76